Nautilus Survey — LIXR — position and weather

sailwx.info

Track history (hours):
 
Tides and Currents Weather Stations Pressure Air Temp Water Temp Dewpoint Dewpoint Depression Visibility Wind Speed Wind Dir Waves Ship Positions

Nautilus Survey

Last reported at 2016-Sep-29 23:33 UTC. Time now 2016-Sep-29 23:51 UTC.
Position N 59°26' E 010°29'.

Length 22 m; draft 2 m.

Type: Dredging. MMSI: 259464000.

Date/timePositionNaut miles runAvg speedWind from/ knotsBaromVisibWave heightAir tempDewpointWater temp
2016-Sep-29 23:33N 59°26' E 010°29'0 0.0
2016-Sep-29 21:33N 59°26' E 010°29'0 0.0
2016-Sep-29 20:33N 59°26' E 010°29'0 0.0
2016-Sep-29 19:33N 59°26' E 010°29'0 0.0
2016-Sep-29 16:33N 59°26' E 010°29'0 0.0
2016-Sep-29 15:33N 59°26' E 010°29'0 0.0
2016-Sep-29 14:33N 59°26' E 010°29'0 0.0
2016-Sep-29 13:34N 59°26' E 010°29'0 0.0
2016-Sep-29 08:33N 59°26' E 010°29'0 0.0
2016-Sep-29 07:33N 59°26' E 010°29'0 0.0
2016-Sep-29 00:33N 59°26' E 010°29'0 0.0
2016-Sep-28 21:33N 59°26' E 010°29'0 0.0
2016-Sep-28 19:33N 59°26' E 010°29'0 0.0
2016-Sep-28 16:33N 59°26' E 010°29'0 0.0
2016-Sep-28 15:33N 59°26' E 010°29'0 0.0
2016-Sep-28 12:33N 59°26' E 010°29'0 0.0
2016-Sep-28 08:33N 59°26' E 010°29'0 0.0
2016-Sep-28 03:33N 59°26' E 010°29'0 0.0
2016-Sep-28 02:33N 59°26' E 010°29'0 0.0
2016-Sep-28 01:33N 59°26' E 010°29'0 0.0
2016-Sep-27 23:33N 59°26' E 010°29'0 0.0
2016-Sep-27 19:33N 59°26' E 010°29'0 0.0
2016-Sep-27 14:33N 59°26' E 010°29'0 0.0
2016-Sep-27 13:33N 59°26' E 010°29'0 0.0
2016-Sep-27 10:33N 59°26' E 010°29'0 0.0
2016-Sep-27 00:33N 59°26' E 010°29'0 0.0
2016-Sep-26 20:33N 59°26' E 010°29'0 0.0
2016-Sep-26 19:33N 59°26' E 010°29'7 1.6
2016-Sep-26 15:33N 59°22' E 010°39'0 0.1
2016-Sep-26 13:33N 59°22' E 010°40'3 1.7
2016-Sep-26 11:33N 59°23' E 010°33'1 0.2
2016-Sep-26 08:33N 59°22' E 010°33'4 0.7
2016-Sep-26 02:33N 59°26' E 010°29'0 0.0
2016-Sep-26 01:33N 59°26' E 010°29'0 0.0
2016-Sep-26 00:34N 59°26' E 010°29'0 0.0
2016-Sep-25 21:34N 59°26' E 010°29'0 0.0
2016-Sep-25 17:33N 59°26' E 010°29'0 0.0
2016-Sep-25 16:33N 59°26' E 010°29'0 0.0
2016-Sep-25 15:33N 59°26' E 010°29'0 0.0
2016-Sep-25 14:33N 59°26' E 010°29'0 0.0
2016-Sep-25 12:33N 59°26' E 010°29'1 1.3
2016-Sep-25 11:33N 59°25' E 010°31'4 3.5
2016-Sep-25 10:33N 59°22' E 010°32'0 0.0
2016-Sep-25 09:33N 59°22' E 010°32'0 0.0
2016-Sep-25 07:33N 59°22' E 010°32'4 1.4
2016-Sep-25 04:33N 59°26' E 010°29'0 0.0
2016-Sep-25 00:33N 59°26' E 010°29'0 0.0
2016-Sep-24 22:33N 59°26' E 010°29'0 0.0
2016-Sep-24 21:34N 59°26' E 010°29'0 0.0
2016-Sep-24 19:33N 59°26' E 010°29'0 0.0
2016-Sep-24 18:33N 59°26' E 010°29'0 0.0
2016-Sep-24 17:33N 59°26' E 010°29'0 0.0
2016-Sep-24 16:33N 59°26' E 010°29'7 3.6
2016-Sep-24 14:34N 59°32' E 010°35'3 1.6
2016-Sep-24 12:33N 59°35' E 010°39'0 0.0
2016-Sep-24 10:33N 59°35' E 010°39'0 0.0
2016-Sep-24 09:33N 59°35' E 010°39'10 1.7
2016-Sep-24 03:33N 59°26' E 010°29'0 0.0
2016-Sep-24 02:33N 59°26' E 010°29'0 0.0
2016-Sep-24 01:33N 59°26' E 010°29'0 0.0
2016-Sep-24 00:33N 59°26' E 010°29'0 0.0
2016-Sep-23 19:33N 59°26' E 010°29'0 0.0
2016-Sep-23 17:34N 59°26' E 010°29'2 2.4
2016-Sep-23 16:33N 59°28' E 010°30'7 7.0
2016-Sep-23 15:33N 59°34' E 010°37'1 0.7
2016-Sep-23 13:33N 59°35' E 010°37'11 2.7
2016-Sep-23 09:33N 59°26' E 010°29'0 0.0
2016-Sep-23 06:33N 59°26' E 010°29'0 0.0
2016-Sep-23 04:33N 59°26' E 010°29'0 0.0
2016-Sep-23 03:33N 59°26' E 010°29'0 0.0
2016-Sep-23 02:33N 59°26' E 010°29'0 0.0
2016-Sep-23 01:33N 59°26' E 010°29'0 0.0
2016-Sep-23 00:33N 59°26' E 010°29'0 0.0
2016-Sep-22 23:33N 59°26' E 010°29'0 0.0
2016-Sep-22 20:33N 59°26' E 010°29'0 0.0
2016-Sep-22 12:33N 59°26' E 010°29'0 0.0
2016-Sep-22 04:33N 59°26' E 010°29'0 0.0
2016-Sep-22 03:33N 59°26' E 010°29'0 0.0
2016-Sep-22 00:33N 59°26' E 010°29'0 0.0
2016-Sep-21 23:33N 59°26' E 010°29'0 0.0
2016-Sep-21 22:33N 59°26' E 010°29'0 0.0
2016-Sep-21 19:33N 59°26' E 010°29'0 0.0
2016-Sep-21 16:33N 59°26' E 010°29'1 0.1
2016-Sep-21 09:33N 59°25' E 010°30'0 0.0
2016-Sep-21 08:33N 59°25' E 010°30'0 0.0
2016-Sep-21 05:33N 59°25' E 010°30'0 0.0
2016-Sep-21 03:33N 59°25' E 010°30'0 0.0
2016-Sep-21 02:33N 59°25' E 010°30'0 0.0
2016-Sep-20 17:33N 59°25' E 010°30'1 0.3
2016-Sep-20 14:33N 59°26' E 010°29'4 4.2
2016-Sep-20 13:34N 59°30' E 010°32'6 2.1
2016-Sep-20 10:33N 59°35' E 010°39'0 0.0
2016-Sep-20 08:33N 59°35' E 010°39'0 0.1
2016-Sep-20 07:33N 59°35' E 010°39'0 0.1
2016-Sep-20 06:33N 59°35' E 010°39'0 0.0
2016-Sep-20 02:33N 59°35' E 010°39'0 0.0
2016-Sep-19 23:33N 59°35' E 010°39'  
Track history (hours):
 
Tides and Currents Weather Stations Pressure Air Temp Water Temp Dewpoint Dewpoint Depression Visibility Wind Speed Wind Dir Waves Ship Positions

Nautilus Survey

Last reported at 2016-Sep-29 23:33 UTC. Time now 2016-Sep-29 23:51 UTC.
Position N 59°26' E 010°29'.

Length 22 m; draft 2 m.

Type: Dredging. MMSI: 259464000.

Date/timePositionNaut miles runAvg speedWind from/ knotsBaromVisibWave heightAir tempDewpointWater temp
2016-Sep-29 23:33N 59°26' E 010°29'0 0.0
2016-Sep-29 21:33N 59°26' E 010°29'0 0.0
2016-Sep-29 20:33N 59°26' E 010°29'0 0.0
2016-Sep-29 19:33N 59°26' E 010°29'0 0.0
2016-Sep-29 16:33N 59°26' E 010°29'0 0.0
2016-Sep-29 15:33N 59°26' E 010°29'0 0.0
2016-Sep-29 14:33N 59°26' E 010°29'0 0.0
2016-Sep-29 13:34N 59°26' E 010°29'0 0.0
2016-Sep-29 08:33N 59°26' E 010°29'0 0.0
2016-Sep-29 07:33N 59°26' E 010°29'0 0.0
2016-Sep-29 00:33N 59°26' E 010°29'0 0.0
2016-Sep-28 21:33N 59°26' E 010°29'0 0.0
2016-Sep-28 19:33N 59°26' E 010°29'0 0.0
2016-Sep-28 16:33N 59°26' E 010°29'0 0.0
2016-Sep-28 15:33N 59°26' E 010°29'0 0.0
2016-Sep-28 12:33N 59°26' E 010°29'0 0.0
2016-Sep-28 08:33N 59°26' E 010°29'0 0.0
2016-Sep-28 03:33N 59°26' E 010°29'0 0.0
2016-Sep-28 02:33N 59°26' E 010°29'0 0.0
2016-Sep-28 01:33N 59°26' E 010°29'0 0.0
2016-Sep-27 23:33N 59°26' E 010°29'0 0.0
2016-Sep-27 19:33N 59°26' E 010°29'0 0.0
2016-Sep-27 14:33N 59°26' E 010°29'0 0.0
2016-Sep-27 13:33N 59°26' E 010°29'0 0.0
2016-Sep-27 10:33N 59°26' E 010°29'0 0.0
2016-Sep-27 00:33N 59°26' E 010°29'0 0.0
2016-Sep-26 20:33N 59°26' E 010°29'0 0.0
2016-Sep-26 19:33N 59°26' E 010°29'7 1.6
2016-Sep-26 15:33N 59°22' E 010°39'0 0.1
2016-Sep-26 13:33N 59°22' E 010°40'3 1.7
2016-Sep-26 11:33N 59°23' E 010°33'1 0.2
2016-Sep-26 08:33N 59°22' E 010°33'4 0.7
2016-Sep-26 02:33N 59°26' E 010°29'0 0.0
2016-Sep-26 01:33N 59°26' E 010°29'0 0.0
2016-Sep-26 00:34N 59°26' E 010°29'0 0.0
2016-Sep-25 21:34N 59°26' E 010°29'0 0.0
2016-Sep-25 17:33N 59°26' E 010°29'0 0.0
2016-Sep-25 16:33N 59°26' E 010°29'0 0.0
2016-Sep-25 15:33N 59°26' E 010°29'0 0.0
2016-Sep-25 14:33N 59°26' E 010°29'0 0.0
2016-Sep-25 12:33N 59°26' E 010°29'1 1.3
2016-Sep-25 11:33N 59°25' E 010°31'4 3.5
2016-Sep-25 10:33N 59°22' E 010°32'0 0.0
2016-Sep-25 09:33N 59°22' E 010°32'0 0.0
2016-Sep-25 07:33N 59°22' E 010°32'4 1.4
2016-Sep-25 04:33N 59°26' E 010°29'0 0.0
2016-Sep-25 00:33N 59°26' E 010°29'0 0.0
2016-Sep-24 22:33N 59°26' E 010°29'0 0.0
2016-Sep-24 21:34N 59°26' E 010°29'0 0.0
2016-Sep-24 19:33N 59°26' E 010°29'0 0.0
2016-Sep-24 18:33N 59°26' E 010°29'0 0.0
2016-Sep-24 17:33N 59°26' E 010°29'0 0.0
2016-Sep-24 16:33N 59°26' E 010°29'7 3.6
2016-Sep-24 14:34N 59°32' E 010°35'3 1.6
2016-Sep-24 12:33N 59°35' E 010°39'0 0.0
2016-Sep-24 10:33N 59°35' E 010°39'0 0.0
2016-Sep-24 09:33N 59°35' E 010°39'10 1.7
2016-Sep-24 03:33N 59°26' E 010°29'0 0.0
2016-Sep-24 02:33N 59°26' E 010°29'0 0.0
2016-Sep-24 01:33N 59°26' E 010°29'0 0.0
2016-Sep-24 00:33N 59°26' E 010°29'0 0.0
2016-Sep-23 19:33N 59°26' E 010°29'0 0.0
2016-Sep-23 17:34N 59°26' E 010°29'2 2.4
2016-Sep-23 16:33N 59°28' E 010°30'7 7.0
2016-Sep-23 15:33N 59°34' E 010°37'1 0.7
2016-Sep-23 13:33N 59°35' E 010°37'11 2.7
2016-Sep-23 09:33N 59°26' E 010°29'0 0.0
2016-Sep-23 06:33N 59°26' E 010°29'0 0.0
2016-Sep-23 04:33N 59°26' E 010°29'0 0.0
2016-Sep-23 03:33N 59°26' E 010°29'0 0.0
2016-Sep-23 02:33N 59°26' E 010°29'0 0.0
2016-Sep-23 01:33N 59°26' E 010°29'0 0.0
2016-Sep-23 00:33N 59°26' E 010°29'0 0.0
2016-Sep-22 23:33N 59°26' E 010°29'0 0.0
2016-Sep-22 20:33N 59°26' E 010°29'0 0.0
2016-Sep-22 12:33N 59°26' E 010°29'0 0.0
2016-Sep-22 04:33N 59°26' E 010°29'0 0.0
2016-Sep-22 03:33N 59°26' E 010°29'0 0.0
2016-Sep-22 00:33N 59°26' E 010°29'0 0.0
2016-Sep-21 23:33N 59°26' E 010°29'0 0.0
2016-Sep-21 22:33N 59°26' E 010°29'0 0.0
2016-Sep-21 19:33N 59°26' E 010°29'0 0.0
2016-Sep-21 16:33N 59°26' E 010°29'1 0.1
2016-Sep-21 09:33N 59°25' E 010°30'0 0.0
2016-Sep-21 08:33N 59°25' E 010°30'0 0.0
2016-Sep-21 05:33N 59°25' E 010°30'0 0.0
2016-Sep-21 03:33N 59°25' E 010°30'0 0.0
2016-Sep-21 02:33N 59°25' E 010°30'0 0.0
2016-Sep-20 17:33N 59°25' E 010°30'1 0.3
2016-Sep-20 14:33N 59°26' E 010°29'4 4.2
2016-Sep-20 13:34N 59°30' E 010°32'6 2.1
2016-Sep-20 10:33N 59°35' E 010°39'0 0.0
2016-Sep-20 08:33N 59°35' E 010°39'0 0.1
2016-Sep-20 07:33N 59°35' E 010°39'0 0.1
2016-Sep-20 06:33N 59°35' E 010°39'0 0.0
2016-Sep-20 02:33N 59°35' E 010°39'0 0.0
2016-Sep-19 23:33N 59°35' E 010°39'  

Dump ship's entire track history